sensor_id;sensor_type;location;lat;lon;timestamp;temperature;humidity
70300;HTU21D;57704;51.112;5.878;2022-09-02T00:00:55;19.29;48.71
70300;HTU21D;57704;51.112;5.878;2022-09-02T00:03:29;19.33;48.70
70300;HTU21D;57704;51.112;5.878;2022-09-02T00:05:56;19.36;48.61
70300;HTU21D;57704;51.112;5.878;2022-09-02T00:08:23;19.35;48.65
70300;HTU21D;57704;51.112;5.878;2022-09-02T00:10:49;19.31;48.64
70300;HTU21D;57704;51.112;5.878;2022-09-02T00:13:16;19.27;48.71
70300;HTU21D;57704;51.112;5.878;2022-09-02T00:15:45;19.27;48.73
70300;HTU21D;57704;51.112;5.878;2022-09-02T00:18:13;19.29;48.74
70300;HTU21D;57704;51.112;5.878;2022-09-02T00:20:42;19.30;48.67
70300;HTU21D;57704;51.112;5.878;2022-09-02T00:23:09;19.33;48.66
70300;HTU21D;57704;51.112;5.878;2022-09-02T00:25:37;19.39;48.60
70300;HTU21D;57704;51.112;5.878;2022-09-02T00:28:05;19.43;48.51
70300;HTU21D;57704;51.112;5.878;2022-09-02T00:30:32;19.48;48.41
70300;HTU21D;57704;51.112;5.878;2022-09-02T00:32:59;19.48;48.38
70300;HTU21D;57704;51.112;5.878;2022-09-02T00:35:26;19.54;48.37
70300;HTU21D;57704;51.112;5.878;2022-09-02T00:37:52;19.57;48.26
70300;HTU21D;57704;51.112;5.878;2022-09-02T00:40:19;19.55;48.25
70300;HTU21D;57704;51.112;5.878;2022-09-02T00:42:46;19.53;48.29
70300;HTU21D;57704;51.112;5.878;2022-09-02T00:45:12;19.53;48.27
70300;HTU21D;57704;51.112;5.878;2022-09-02T00:47:39;19.56;48.25
70300;HTU21D;57704;51.112;5.878;2022-09-02T00:50:09;19.58;48.16
70300;HTU21D;57704;51.112;5.878;2022-09-02T00:52:42;19.60;48.18
70300;HTU21D;57704;51.112;5.878;2022-09-02T00:55:20;19.61;48.19
70300;HTU21D;57704;51.112;5.878;2022-09-02T00:57:58;19.62;48.20
70300;HTU21D;57704;51.112;5.878;2022-09-02T01:00:33;19.65;48.19
70300;HTU21D;57704;51.112;5.878;2022-09-02T01:03:06;19.67;48.16
70300;HTU21D;57704;51.112;5.878;2022-09-02T01:05:38;19.71;48.12
70300;HTU21D;57704;51.112;5.878;2022-09-02T01:08:05;19.73;48.10
70300;HTU21D;57704;51.112;5.878;2022-09-02T01:10:34;19.75;48.03
70300;HTU21D;57704;51.112;5.878;2022-09-02T01:13:16;19.74;48.02
70300;HTU21D;57704;51.112;5.878;2022-09-02T01:15:48;19.72;48.07
70300;HTU21D;57704;51.112;5.878;2022-09-02T01:18:20;19.73;48.05
70300;HTU21D;57704;51.112;5.878;2022-09-02T01:20:47;19.67;48.12
70300;HTU21D;57704;51.112;5.878;2022-09-02T01:23:15;19.63;48.17
70300;HTU21D;57704;51.112;5.878;2022-09-02T01:25:43;19.59;48.22
70300;HTU21D;57704;51.112;5.878;2022-09-02T01:28:13;19.55;48.30
70300;HTU21D;57704;51.112;5.878;2022-09-02T01:30:43;19.53;48.37
70300;HTU21D;57704;51.112;5.878;2022-09-02T01:33:11;19.52;48.47
70300;HTU21D;57704;51.112;5.878;2022-09-02T01:35:38;19.48;48.50
70300;HTU21D;57704;51.112;5.878;2022-09-02T01:38:05;19.47;48.53
70300;HTU21D;57704;51.112;5.878;2022-09-02T01:40:32;19.46;48.53
70300;HTU21D;57704;51.112;5.878;2022-09-02T01:43:11;19.46;48.57
70300;HTU21D;57704;51.112;5.878;2022-09-02T01:45:39;19.47;48.50
70300;HTU21D;57704;51.112;5.878;2022-09-02T01:48:08;19.45;48.52
70300;HTU21D;57704;51.112;5.878;2022-09-02T01:50:40;19.43;48.52
70300;HTU21D;57704;51.112;5.878;2022-09-02T01:53:07;19.40;48.52
70300;HTU21D;57704;51.112;5.878;2022-09-02T01:55:33;19.36;48.59
70300;HTU21D;57704;51.112;5.878;2022-09-02T01:58:00;19.32;48.66
70300;HTU21D;57704;51.112;5.878;2022-09-02T02:00:27;19.31;48.68
70300;HTU21D;57704;51.112;5.878;2022-09-02T02:02:54;19.35;48.69
70300;HTU21D;57704;51.112;5.878;2022-09-02T02:05:21;19.41;48.64
70300;HTU21D;57704;51.112;5.878;2022-09-02T02:07:50;19.41;48.63
70300;HTU21D;57704;51.112;5.878;2022-09-02T02:10:19;19.44;48.58
70300;HTU21D;57704;51.112;5.878;2022-09-02T02:12:46;19.46;48.48
70300;HTU21D;57704;51.112;5.878;2022-09-02T02:15:16;19.47;48.49
70300;HTU21D;57704;51.112;5.878;2022-09-02T02:17:43;19.50;48.46
70300;HTU21D;57704;51.112;5.878;2022-09-02T02:20:11;19.50;48.42
70300;HTU21D;57704;51.112;5.878;2022-09-02T02:22:42;19.50;48.42
70300;HTU21D;57704;51.112;5.878;2022-09-02T02:25:11;19.48;48.42
70300;HTU21D;57704;51.112;5.878;2022-09-02T02:27:37;19.47;48.47
70300;HTU21D;57704;51.112;5.878;2022-09-02T02:30:08;19.46;48.53
70300;HTU21D;57704;51.112;5.878;2022-09-02T02:32:34;19.48;48.58
70300;HTU21D;57704;51.112;5.878;2022-09-02T02:35:02;19.47;48.56
70300;HTU21D;57704;51.112;5.878;2022-09-02T02:37:30;19.50;48.55
70300;HTU21D;57704;51.112;5.878;2022-09-02T02:39:56;19.53;48.49
70300;HTU21D;57704;51.112;5.878;2022-09-02T02:42:23;19.51;48.50
70300;HTU21D;57704;51.112;5.878;2022-09-02T02:44:50;19.50;48.56
70300;HTU21D;57704;51.112;5.878;2022-09-02T02:47:16;19.52;48.56
70300;HTU21D;57704;51.112;5.878;2022-09-02T02:49:43;19.53;48.57
70300;HTU21D;57704;51.112;5.878;2022-09-02T02:52:10;19.52;48.53
70300;HTU21D;57704;51.112;5.878;2022-09-02T02:54:38;19.47;48.59
70300;HTU21D;57704;51.112;5.878;2022-09-02T02:57:05;19.45;48.65
70300;HTU21D;57704;51.112;5.878;2022-09-02T02:59:32;19.45;48.71
70300;HTU21D;57704;51.112;5.878;2022-09-02T03:01:58;19.44;48.75
70300;HTU21D;57704;51.112;5.878;2022-09-02T03:04:25;19.46;48.79
70300;HTU21D;57704;51.112;5.878;2022-09-02T03:06:51;19.48;48.73
70300;HTU21D;57704;51.112;5.878;2022-09-02T03:09:18;19.46;48.76
70300;HTU21D;57704;51.112;5.878;2022-09-02T03:11:46;19.45;48.79
70300;HTU21D;57704;51.112;5.878;2022-09-02T03:14:12;19.45;48.82
70300;HTU21D;57704;51.112;5.878;2022-09-02T03:16:38;19.47;48.85
70300;HTU21D;57704;51.112;5.878;2022-09-02T03:19:04;19.50;48.83
70300;HTU21D;57704;51.112;5.878;2022-09-02T03:21:31;19.52;48.84
70300;HTU21D;57704;51.112;5.878;2022-09-02T03:23:58;19.55;48.79
70300;HTU21D;57704;51.112;5.878;2022-09-02T03:26:24;19.55;48.84
70300;HTU21D;57704;51.112;5.878;2022-09-02T03:28:54;19.57;48.88
70300;HTU21D;57704;51.112;5.878;2022-09-02T03:31:23;19.59;48.85
70300;HTU21D;57704;51.112;5.878;2022-09-02T03:33:51;19.60;48.82
70300;HTU21D;57704;51.112;5.878;2022-09-02T03:36:34;19.62;48.93
70300;HTU21D;57704;51.112;5.878;2022-09-02T03:39:03;19.67;48.85
70300;HTU21D;57704;51.112;5.878;2022-09-02T03:41:29;19.65;48.92
70300;HTU21D;57704;51.112;5.878;2022-09-02T03:43:56;19.60;49.05
70300;HTU21D;57704;51.112;5.878;2022-09-02T03:46:24;19.58;49.13
70300;HTU21D;57704;51.112;5.878;2022-09-02T03:48:51;19.60;49.18
70300;HTU21D;57704;51.112;5.878;2022-09-02T03:51:21;19.61;49.23
70300;HTU21D;57704;51.112;5.878;2022-09-02T03:53:48;19.65;49.25
70300;HTU21D;57704;51.112;5.878;2022-09-02T03:56:16;19.65;49.19
70300;HTU21D;57704;51.112;5.878;2022-09-02T03:58:45;19.63;49.31
70300;HTU21D;57704;51.112;5.878;2022-09-02T04:01:17;19.67;49.33
70300;HTU21D;57704;51.112;5.878;2022-09-02T04:03:45;19.69;49.34
70300;HTU21D;57704;51.112;5.878;2022-09-02T04:06:14;19.70;49.37
70300;HTU21D;57704;51.112;5.878;2022-09-02T04:08:41;19.65;49.43
70300;HTU21D;57704;51.112;5.878;2022-09-02T04:11:15;19.62;49.54
70300;HTU21D;57704;51.112;5.878;2022-09-02T04:13:46;19.59;49.66
70300;HTU21D;57704;51.112;5.878;2022-09-02T04:16:20;19.59;49.75
70300;HTU21D;57704;51.112;5.878;2022-09-02T04:18:47;19.59;49.74
70300;HTU21D;57704;51.112;5.878;2022-09-02T04:21:13;19.57;49.88
70300;HTU21D;57704;51.112;5.878;2022-09-02T04:23:40;19.56;49.94
70300;HTU21D;57704;51.112;5.878;2022-09-02T04:26:08;19.54;50.08
70300;HTU21D;57704;51.112;5.878;2022-09-02T04:28:37;19.57;50.03
70300;HTU21D;57704;51.112;5.878;2022-09-02T04:31:04;19.57;50.11
70300;HTU21D;57704;51.112;5.878;2022-09-02T04:33:30;19.61;50.08
70300;HTU21D;57704;51.112;5.878;2022-09-02T04:35:57;19.62;50.07
70300;HTU21D;57704;51.112;5.878;2022-09-02T04:38:23;19.60;50.13
70300;HTU21D;57704;51.112;5.878;2022-09-02T04:40:50;19.58;50.14
70300;HTU21D;57704;51.112;5.878;2022-09-02T04:43:18;19.58;50.13
70300;HTU21D;57704;51.112;5.878;2022-09-02T04:45:46;19.56;50.18
70300;HTU21D;57704;51.112;5.878;2022-09-02T04:48:14;19.53;50.25
70300;HTU21D;57704;51.112;5.878;2022-09-02T04:50:41;19.48;50.32
70300;HTU21D;57704;51.112;5.878;2022-09-02T04:53:08;19.46;50.41
70300;HTU21D;57704;51.112;5.878;2022-09-02T04:55:38;19.45;50.50
70300;HTU21D;57704;51.112;5.878;2022-09-02T04:58:04;19.45;50.54
70300;HTU21D;57704;51.112;5.878;2022-09-02T05:00:31;19.45;50.59
70300;HTU21D;57704;51.112;5.878;2022-09-02T05:02:57;19.43;50.61
70300;HTU21D;57704;51.112;5.878;2022-09-02T05:05:28;19.42;50.63
70300;HTU21D;57704;51.112;5.878;2022-09-02T05:07:56;19.42;50.68
70300;HTU21D;57704;51.112;5.878;2022-09-02T05:10:23;19.41;50.69
70300;HTU21D;57704;51.112;5.878;2022-09-02T05:12:50;19.41;50.80
70300;HTU21D;57704;51.112;5.878;2022-09-02T05:15:18;19.41;50.84
70300;HTU21D;57704;51.112;5.878;2022-09-02T05:17:43;19.45;50.87
70300;HTU21D;57704;51.112;5.878;2022-09-02T05:20:11;19.44;50.92
70300;HTU21D;57704;51.112;5.878;2022-09-02T05:22:41;19.47;50.92
70300;HTU21D;57704;51.112;5.878;2022-09-02T05:25:08;19.50;50.88
70300;HTU21D;57704;51.112;5.878;2022-09-02T05:27:35;19.52;50.87
70300;HTU21D;57704;51.112;5.878;2022-09-02T05:30:04;19.51;51.03
70300;HTU21D;57704;51.112;5.878;2022-09-02T05:32:33;19.56;50.85
70300;HTU21D;57704;51.112;5.878;2022-09-02T05:35:00;19.58;50.89
70300;HTU21D;57704;51.112;5.878;2022-09-02T05:37:26;19.60;50.86
70300;HTU21D;57704;51.112;5.878;2022-09-02T05:39:52;19.62;50.85
70300;HTU21D;57704;51.112;5.878;2022-09-02T05:42:19;19.68;50.82
70300;HTU21D;57704;51.112;5.878;2022-09-02T05:44:47;19.72;50.79
70300;HTU21D;57704;51.112;5.878;2022-09-02T05:47:17;19.81;50.66
70300;HTU21D;57704;51.112;5.878;2022-09-02T05:49:44;19.82;50.50
70300;HTU21D;57704;51.112;5.878;2022-09-02T05:52:13;19.81;50.55
70300;HTU21D;57704;51.112;5.878;2022-09-02T05:54:45;19.83;50.61
70300;HTU21D;57704;51.112;5.878;2022-09-02T05:57:16;19.84;50.69
70300;HTU21D;57704;51.112;5.878;2022-09-02T05:59:56;19.87;50.76
70300;HTU21D;57704;51.112;5.878;2022-09-02T06:02:27;19.88;50.81
70300;HTU21D;57704;51.112;5.878;2022-09-02T06:04:54;19.94;50.82
70300;HTU21D;57704;51.112;5.878;2022-09-02T06:07:22;20.02;50.81
70300;HTU21D;57704;51.112;5.878;2022-09-02T06:09:50;20.06;50.74
70300;HTU21D;57704;51.112;5.878;2022-09-02T06:12:20;20.16;50.59
70300;HTU21D;57704;51.112;5.878;2022-09-02T06:14:48;20.17;50.60
70300;HTU21D;57704;51.112;5.878;2022-09-02T06:17:16;20.26;50.59
70300;HTU21D;57704;51.112;5.878;2022-09-02T06:19:49;20.33;50.53
70300;HTU21D;57704;51.112;5.878;2022-09-02T06:22:15;20.40;50.49
70300;HTU21D;57704;51.112;5.878;2022-09-02T06:24:42;20.47;50.34
70300;HTU21D;57704;51.112;5.878;2022-09-02T06:27:15;20.50;50.34
70300;HTU21D;57704;51.112;5.878;2022-09-02T06:29:45;20.56;50.35
70300;HTU21D;57704;51.112;5.878;2022-09-02T06:32:13;20.62;50.30
70300;HTU21D;57704;51.112;5.878;2022-09-02T06:34:40;20.69;50.29
70300;HTU21D;57704;51.112;5.878;2022-09-02T06:37:06;20.70;50.22
70300;HTU21D;57704;51.112;5.878;2022-09-02T06:39:36;20.69;50.22
70300;HTU21D;57704;51.112;5.878;2022-09-02T06:42:04;20.73;50.24
70300;HTU21D;57704;51.112;5.878;2022-09-02T06:44:32;20.77;50.11
70300;HTU21D;57704;51.112;5.878;2022-09-02T06:46:59;20.80;50.11
70300;HTU21D;57704;51.112;5.878;2022-09-02T06:49:27;20.84;50.08
70300;HTU21D;57704;51.112;5.878;2022-09-02T06:51:55;20.90;49.95
70300;HTU21D;57704;51.112;5.878;2022-09-02T06:54:27;20.96;49.82
70300;HTU21D;57704;51.112;5.878;2022-09-02T06:57:04;20.95;49.69
70300;HTU21D;57704;51.112;5.878;2022-09-02T06:59:31;20.98;49.71
70300;HTU21D;57704;51.112;5.878;2022-09-02T07:01:57;21.00;49.80
70300;HTU21D;57704;51.112;5.878;2022-09-02T07:04:24;21.04;49.71
70300;HTU21D;57704;51.112;5.878;2022-09-02T07:07:12;21.11;49.61
70300;HTU21D;57704;51.112;5.878;2022-09-02T07:09:44;21.17;49.47
70300;HTU21D;57704;51.112;5.878;2022-09-02T07:12:14;21.16;49.48
70300;HTU21D;57704;51.112;5.878;2022-09-02T07:15:05;21.15;49.51
70300;HTU21D;57704;51.112;5.878;2022-09-02T07:17:36;21.19;49.62
70300;HTU21D;57704;51.112;5.878;2022-09-02T07:20:06;21.25;49.53
70300;HTU21D;57704;51.112;5.878;2022-09-02T07:22:51;21.29;49.46
70300;HTU21D;57704;51.112;5.878;2022-09-02T07:25:19;21.32;49.47
70300;HTU21D;57704;51.112;5.878;2022-09-02T07:27:48;21.39;49.53
70300;HTU21D;57704;51.112;5.878;2022-09-02T07:30:16;21.57;49.37
70300;HTU21D;57704;51.112;5.878;2022-09-02T07:32:44;21.65;49.02
70300;HTU21D;57704;51.112;5.878;2022-09-02T07:35:10;21.77;48.79
70300;HTU21D;57704;51.112;5.878;2022-09-02T07:37:37;21.88;48.63
70300;HTU21D;57704;51.112;5.878;2022-09-02T07:40:10;22.02;48.34
70300;HTU21D;57704;51.112;5.878;2022-09-02T07:42:37;22.14;48.24
70300;HTU21D;57704;51.112;5.878;2022-09-02T07:45:04;22.27;48.12
70300;HTU21D;57704;51.112;5.878;2022-09-02T07:47:31;22.48;47.51
70300;HTU21D;57704;51.112;5.878;2022-09-02T07:49:59;22.52;47.10
70300;HTU21D;57704;51.112;5.878;2022-09-02T07:52:25;22.63;46.50
70300;HTU21D;57704;51.112;5.878;2022-09-02T07:54:53;22.72;46.44
70300;HTU21D;57704;51.112;5.878;2022-09-02T07:57:19;22.98;46.02
70300;HTU21D;57704;51.112;5.878;2022-09-02T07:59:46;23.17;45.48
70300;HTU21D;57704;51.112;5.878;2022-09-02T08:02:13;23.35;44.90
70300;HTU21D;57704;51.112;5.878;2022-09-02T08:04:42;23.45;44.29
70300;HTU21D;57704;51.112;5.878;2022-09-02T08:07:10;23.49;44.41
70300;HTU21D;57704;51.112;5.878;2022-09-02T08:09:36;23.56;44.21
70300;HTU21D;57704;51.112;5.878;2022-09-02T08:12:02;23.79;44.27
70300;HTU21D;57704;51.112;5.878;2022-09-02T08:14:29;24.08;43.87
70300;HTU21D;57704;51.112;5.878;2022-09-02T08:16:56;24.56;43.24
70300;HTU21D;57704;51.112;5.878;2022-09-02T08:19:23;24.98;42.48
70300;HTU21D;57704;51.112;5.878;2022-09-02T08:21:50;25.28;41.23
70300;HTU21D;57704;51.112;5.878;2022-09-02T08:24:16;25.48;41.13
70300;HTU21D;57704;51.112;5.878;2022-09-02T08:26:42;25.76;40.45
70300;HTU21D;57704;51.112;5.878;2022-09-02T08:29:08;25.98;40.36
70300;HTU21D;57704;51.112;5.878;2022-09-02T08:31:37;26.43;39.97
70300;HTU21D;57704;51.112;5.878;2022-09-02T08:34:03;27.06;39.46
70300;HTU21D;57704;51.112;5.878;2022-09-02T08:36:29;27.70;38.16
70300;HTU21D;57704;51.112;5.878;2022-09-02T08:38:55;28.24;36.33
70300;HTU21D;57704;51.112;5.878;2022-09-02T08:41:25;28.43;35.72
70300;HTU21D;57704;51.112;5.878;2022-09-02T08:43:59;28.76;35.43
70300;HTU21D;57704;51.112;5.878;2022-09-02T08:46:30;29.23;34.15
70300;HTU21D;57704;51.112;5.878;2022-09-02T08:49:24;29.50;33.26
70300;HTU21D;57704;51.112;5.878;2022-09-02T08:51:57;29.68;32.95
70300;HTU21D;57704;51.112;5.878;2022-09-02T08:54:36;29.80;32.46
70300;HTU21D;57704;51.112;5.878;2022-09-02T08:57:07;29.92;32.06
70300;HTU21D;57704;51.112;5.878;2022-09-02T08:59:35;30.01;31.96
70300;HTU21D;57704;51.112;5.878;2022-09-02T09:07:51;30.40;31.15
70300;HTU21D;57704;51.112;5.878;2022-09-02T09:13:45;30.50;30.71
70300;HTU21D;57704;51.112;5.878;2022-09-02T09:16:36;30.81;30.35
70300;HTU21D;57704;51.112;5.878;2022-09-02T09:19:11;31.23;29.62
70300;HTU21D;57704;51.112;5.878;2022-09-02T09:21:38;31.49;28.55
70300;HTU21D;57704;51.112;5.878;2022-09-02T09:26:44;31.40;28.26
70300;HTU21D;57704;51.112;5.878;2022-09-02T09:29:12;31.16;28.00
70300;HTU21D;57704;51.112;5.878;2022-09-02T09:31:39;30.95;28.59
70300;HTU21D;57704;51.112;5.878;2022-09-02T09:34:11;31.01;28.68
70300;HTU21D;57704;51.112;5.878;2022-09-02T09:36:55;31.09;27.68
70300;HTU21D;57704;51.112;5.878;2022-09-02T09:39:31;30.68;27.85
70300;HTU21D;57704;51.112;5.878;2022-09-02T09:42:03;30.49;28.25
70300;HTU21D;57704;51.112;5.878;2022-09-02T09:44:37;30.64;28.10
70300;HTU21D;57704;51.112;5.878;2022-09-02T09:47:11;30.82;28.23
70300;HTU21D;57704;51.112;5.878;2022-09-02T09:49:39;31.12;27.55
70300;HTU21D;57704;51.112;5.878;2022-09-02T09:52:05;31.24;27.67
70300;HTU21D;57704;51.112;5.878;2022-09-02T09:54:32;31.52;27.52
70300;HTU21D;57704;51.112;5.878;2022-09-02T09:57:19;31.76;26.87
70300;HTU21D;57704;51.112;5.878;2022-09-02T09:59:47;31.72;26.81
70300;HTU21D;57704;51.112;5.878;2022-09-02T10:02:22;31.63;26.01
70300;HTU21D;57704;51.112;5.878;2022-09-02T10:04:50;31.25;26.10
70300;HTU21D;57704;51.112;5.878;2022-09-02T10:07:38;30.95;26.93
70300;HTU21D;57704;51.112;5.878;2022-09-02T10:10:22;31.08;26.07
70300;HTU21D;57704;51.112;5.878;2022-09-02T10:12:51;30.95;26.17
70300;HTU21D;57704;51.112;5.878;2022-09-02T10:18:54;30.95;26.10
70300;HTU21D;57704;51.112;5.878;2022-09-02T10:24:24;30.83;25.63
70300;HTU21D;57704;51.112;5.878;2022-09-02T10:26:57;30.85;25.20
70300;HTU21D;57704;51.112;5.878;2022-09-02T10:40:44;31.05;24.60
70300;HTU21D;57704;51.112;5.878;2022-09-02T10:46:16;31.14;24.82
70300;HTU21D;57704;51.112;5.878;2022-09-02T10:56:59;31.64;24.07
70300;HTU21D;57704;51.112;5.878;2022-09-02T10:59:43;31.68;23.85
70300;HTU21D;57704;51.112;5.878;2022-09-02T11:02:14;31.67;23.90
70300;HTU21D;57704;51.112;5.878;2022-09-02T11:04:52;31.82;23.13
70300;HTU21D;57704;51.112;5.878;2022-09-02T11:07:29;32.05;22.47
70300;HTU21D;57704;51.112;5.878;2022-09-02T11:10:30;31.95;22.37
70300;HTU21D;57704;51.112;5.878;2022-09-02T11:13:17;32.10;22.50
70300;HTU21D;57704;51.112;5.878;2022-09-02T11:15:55;32.17;22.05
70300;HTU21D;57704;51.112;5.878;2022-09-02T11:18:29;32.23;21.73
70300;HTU21D;57704;51.112;5.878;2022-09-02T11:21:08;32.34;21.24
70300;HTU21D;57704;51.112;5.878;2022-09-02T11:23:52;32.60;20.53
70300;HTU21D;57704;51.112;5.878;2022-09-02T11:26:20;32.63;20.21
70300;HTU21D;57704;51.112;5.878;2022-09-02T11:31:50;33.40;20.67
70300;HTU21D;57704;51.112;5.878;2022-09-02T11:34:36;33.71;20.18
70300;HTU21D;57704;51.112;5.878;2022-09-02T11:37:09;33.95;19.73
70300;HTU21D;57704;51.112;5.878;2022-09-02T11:48:04;33.55;19.70
70300;HTU21D;57704;51.112;5.878;2022-09-02T11:56:42;34.07;18.87
70300;HTU21D;57704;51.112;5.878;2022-09-02T11:59:00;34.37;18.74
70300;HTU21D;57704;51.112;5.878;2022-09-02T12:06:36;35.62;17.36
70300;HTU21D;57704;51.112;5.878;2022-09-02T12:09:05;35.67;17.26
70300;HTU21D;57704;51.112;5.878;2022-09-02T12:14:03;35.93;17.34
70300;HTU21D;57704;51.112;5.878;2022-09-02T12:21:33;36.91;16.52
70300;HTU21D;57704;51.112;5.878;2022-09-02T12:24:09;37.23;16.28
70300;HTU21D;57704;51.112;5.878;2022-09-02T12:29:32;37.22;16.13
70300;HTU21D;57704;51.112;5.878;2022-09-02T12:31:59;37.32;16.10
70300;HTU21D;57704;51.112;5.878;2022-09-02T12:37:01;37.46;14.95
70300;HTU21D;57704;51.112;5.878;2022-09-02T12:47:58;37.16;15.13
70300;HTU21D;57704;51.112;5.878;2022-09-02T12:50:55;36.69;15.94
70300;HTU21D;57704;51.112;5.878;2022-09-02T12:53:45;36.70;15.84
70300;HTU21D;57704;51.112;5.878;2022-09-02T12:56:17;36.38;15.64
70300;HTU21D;57704;51.112;5.878;2022-09-02T12:58:48;35.73;16.33
70300;HTU21D;57704;51.112;5.878;2022-09-02T13:16:04;34.31;17.35
70300;HTU21D;57704;51.112;5.878;2022-09-02T13:32:35;33.73;17.93
70300;HTU21D;57704;51.112;5.878;2022-09-02T13:35:16;33.74;17.80
70300;HTU21D;57704;51.112;5.878;2022-09-02T13:37:43;33.63;18.21
70300;HTU21D;57704;51.112;5.878;2022-09-02T13:40:23;33.70;17.94
70300;HTU21D;57704;51.112;5.878;2022-09-02T13:42:56;33.25;18.30
70300;HTU21D;57704;51.112;5.878;2022-09-02T13:45:25;33.03;18.51
70300;HTU21D;57704;51.112;5.878;2022-09-02T13:47:57;32.99;18.77
70300;HTU21D;57704;51.112;5.878;2022-09-02T13:50:27;33.02;18.80
70300;HTU21D;57704;51.112;5.878;2022-09-02T13:52:59;32.96;18.68
70300;HTU21D;57704;51.112;5.878;2022-09-02T13:55:30;32.86;18.83
70300;HTU21D;57704;51.112;5.878;2022-09-02T13:58:43;32.76;19.21
70300;HTU21D;57704;51.112;5.878;2022-09-02T14:00:43;32.74;19.29
70300;HTU21D;57704;51.112;5.878;2022-09-02T14:03:14;32.76;19.34
70300;HTU21D;57704;51.112;5.878;2022-09-02T14:05:44;32.74;19.29
70300;HTU21D;57704;51.112;5.878;2022-09-02T14:08:17;32.68;19.44
70300;HTU21D;57704;51.112;5.878;2022-09-02T14:10:43;32.52;19.33
70300;HTU21D;57704;51.112;5.878;2022-09-02T14:13:12;32.14;19.59
70300;HTU21D;57704;51.112;5.878;2022-09-02T14:15:40;31.82;19.85
70300;HTU21D;57704;51.112;5.878;2022-09-02T14:18:11;31.57;20.45
70300;HTU21D;57704;51.112;5.878;2022-09-02T14:20:59;31.57;20.35
70300;HTU21D;57704;51.112;5.878;2022-09-02T14:23:29;31.37;20.63
70300;HTU21D;57704;51.112;5.878;2022-09-02T14:26:00;31.24;21.07
70300;HTU21D;57704;51.112;5.878;2022-09-02T14:28:33;31.20;21.07
70300;HTU21D;57704;51.112;5.878;2022-09-02T14:31:00;31.08;21.20
70300;HTU21D;57704;51.112;5.878;2022-09-02T14:38:52;30.95;21.52
70300;HTU21D;57704;51.112;5.878;2022-09-02T14:41:28;30.98;21.81
70300;HTU21D;57704;51.112;5.878;2022-09-02T14:46:47;30.84;21.66
70300;HTU21D;57704;51.112;5.878;2022-09-02T14:49:48;30.66;21.89
70300;HTU21D;57704;51.112;5.878;2022-09-02T14:52:19;30.61;21.79
70300;HTU21D;57704;51.112;5.878;2022-09-02T14:54:51;30.59;22.18
70300;HTU21D;57704;51.112;5.878;2022-09-02T14:57:29;30.69;22.12
70300;HTU21D;57704;51.112;5.878;2022-09-02T15:00:03;30.54;21.87
70300;HTU21D;57704;51.112;5.878;2022-09-02T15:02:34;30.33;22.35
70300;HTU21D;57704;51.112;5.878;2022-09-02T15:05:05;30.27;22.25
70300;HTU21D;57704;51.112;5.878;2022-09-02T15:07:32;30.16;22.30
70300;HTU21D;57704;51.112;5.878;2022-09-02T15:09:59;30.09;22.56
70300;HTU21D;57704;51.112;5.878;2022-09-02T15:12:32;30.13;22.66
70300;HTU21D;57704;51.112;5.878;2022-09-02T15:14:59;30.08;22.61
70300;HTU21D;57704;51.112;5.878;2022-09-02T15:17:26;30.05;22.63
70300;HTU21D;57704;51.112;5.878;2022-09-02T15:19:53;29.96;22.92
70300;HTU21D;57704;51.112;5.878;2022-09-02T15:22:19;29.95;22.92
70300;HTU21D;57704;51.112;5.878;2022-09-02T15:24:45;29.86;23.04
70300;HTU21D;57704;51.112;5.878;2022-09-02T15:27:13;29.88;23.00
70300;HTU21D;57704;51.112;5.878;2022-09-02T15:29:39;29.81;23.21
70300;HTU21D;57704;51.112;5.878;2022-09-02T15:32:06;29.91;23.25
70300;HTU21D;57704;51.112;5.878;2022-09-02T15:34:33;29.93;23.25
70300;HTU21D;57704;51.112;5.878;2022-09-02T15:37:00;29.91;23.17
70300;HTU21D;57704;51.112;5.878;2022-09-02T15:39:27;29.90;23.30
70300;HTU21D;57704;51.112;5.878;2022-09-02T15:41:54;29.85;23.21
70300;HTU21D;57704;51.112;5.878;2022-09-02T15:44:24;29.73;23.01
70300;HTU21D;57704;51.112;5.878;2022-09-02T15:46:51;29.54;23.24
70300;HTU21D;57704;51.112;5.878;2022-09-02T15:49:19;29.48;23.40
70300;HTU21D;57704;51.112;5.878;2022-09-02T15:51:47;29.47;23.66
70300;HTU21D;57704;51.112;5.878;2022-09-02T15:54:17;29.51;23.56
70300;HTU21D;57704;51.112;5.878;2022-09-02T15:56:45;29.43;23.36
70300;HTU21D;57704;51.112;5.878;2022-09-02T15:59:17;29.34;23.59
70300;HTU21D;57704;51.112;5.878;2022-09-02T16:01:48;29.23;23.62
70300;HTU21D;57704;51.112;5.878;2022-09-02T16:04:14;29.20;23.66
70300;HTU21D;57704;51.112;5.878;2022-09-02T16:06:46;29.23;23.62
70300;HTU21D;57704;51.112;5.878;2022-09-02T16:09:15;29.12;23.66
70300;HTU21D;57704;51.112;5.878;2022-09-02T16:11:44;29.00;23.83
70300;HTU21D;57704;51.112;5.878;2022-09-02T16:14:11;28.95;23.87
70300;HTU21D;57704;51.112;5.878;2022-09-02T16:16:37;28.90;23.89
70300;HTU21D;57704;51.112;5.878;2022-09-02T16:19:05;28.82;23.85
70300;HTU21D;57704;51.112;5.878;2022-09-02T16:21:35;28.73;23.80
70300;HTU21D;57704;51.112;5.878;2022-09-02T16:24:04;28.58;23.98
70300;HTU21D;57704;51.112;5.878;2022-09-02T16:26:33;28.52;24.13
70300;HTU21D;57704;51.112;5.878;2022-09-02T16:29:10;28.52;24.22
70300;HTU21D;57704;51.112;5.878;2022-09-02T16:31:42;28.53;24.33
70300;HTU21D;57704;51.112;5.878;2022-09-02T16:34:10;28.57;24.22
70300;HTU21D;57704;51.112;5.878;2022-09-02T16:36:39;28.49;24.50
70300;HTU21D;57704;51.112;5.878;2022-09-02T16:39:07;28.47;24.54
70300;HTU21D;57704;51.112;5.878;2022-09-02T16:41:37;28.40;24.47
70300;HTU21D;57704;51.112;5.878;2022-09-02T16:44:06;28.33;24.56
70300;HTU21D;57704;51.112;5.878;2022-09-02T16:46:34;28.28;24.55
70300;HTU21D;57704;51.112;5.878;2022-09-02T16:49:02;28.24;24.49
70300;HTU21D;57704;51.112;5.878;2022-09-02T16:51:28;28.17;24.65
70300;HTU21D;57704;51.112;5.878;2022-09-02T16:54:02;28.12;24.76
70300;HTU21D;57704;51.112;5.878;2022-09-02T16:56:29;28.04;24.82
70300;HTU21D;57704;51.112;5.878;2022-09-02T16:59:00;27.95;24.85
70300;HTU21D;57704;51.112;5.878;2022-09-02T17:01:27;27.87;24.72
70300;HTU21D;57704;51.112;5.878;2022-09-02T17:03:54;27.76;24.80
70300;HTU21D;57704;51.112;5.878;2022-09-02T17:06:20;27.66;25.00
70300;HTU21D;57704;51.112;5.878;2022-09-02T17:08:46;27.57;25.26
70300;HTU21D;57704;51.112;5.878;2022-09-02T17:11:28;27.52;25.37
70300;HTU21D;57704;51.112;5.878;2022-09-02T17:13:58;27.41;25.35
70300;HTU21D;57704;51.112;5.878;2022-09-02T17:16:28;27.28;25.48
70300;HTU21D;57704;51.112;5.878;2022-09-02T17:18:55;27.21;25.69
70300;HTU21D;57704;51.112;5.878;2022-09-02T17:24:01;27.01;26.07
70300;HTU21D;57704;51.112;5.878;2022-09-02T17:26:29;26.97;26.26
70300;HTU21D;57704;51.112;5.878;2022-09-02T17:28:56;26.89;26.47
70300;HTU21D;57704;51.112;5.878;2022-09-02T17:31:29;26.79;26.52
70300;HTU21D;57704;51.112;5.878;2022-09-02T17:33:57;26.70;26.69
70300;HTU21D;57704;51.112;5.878;2022-09-02T17:36:27;26.65;26.79